O'Brien, Oregon
Current Conditions -  °F | °C
As of 3:56 AM on Thursday 29 Jan 2015 (Local Time) from KBOK Reporting Station
Clear Clear  
Wind Chill:   Ceiling: Unl
Heat Index:   Visibility: 10mi
Dew Point:   Wind: 0mph
Humidity: 100%   Direction: NA
Pressure: 30.24"   Gusts: NA
Location:  42.07°N, 123.71°W
Report Text: KBOK 291156Z AUTO 00000KT 10SM CLR 08/08 A3024 RMK AO2 56004 T00770077 10105 20077 SLP243
Loading
Personal Weather Stations






























Interactive Weather Map New forecast layout! Learn more

10-Day Weather Forecast

Advertisements
Track Severe Weather on mobile